Austin Straubel International Airport Green Bay US
ICAO: KGRB
IATA: GRB
Category: Large
Scheduled Services: Yes

Elevation: 695 ft
TransAlt. 18000 ft.

Airport Communications:
GREEN BAY APP:119.4
ATIS:124.1
CLNC DEL:121.75
CTAF:118.7
GREEN BAY DEP:126.55
GND:121.9
GREEN BAY RDO:122.2
GREEN BAY TWR:118.7
UNICOM:122.95

KGRB Zoom In..

If you have problems with the map follow the link
https://www.worldairports.se/pages/airport.php?
ICAO=KGRB

Runways:

(A) RW 06 length 7699 ft width 150 ft
ILS 109.50 / hdg 62

(B) RW 18 length 8699 ft width 150 ft
---- / hdg 182

(C) RW 24 length 7699 ft width 150 ft
---- / hdg 242

(D) RW 36 length 8699 ft width 150 ft
ILS 109.90 / hdg 2

Location; KGRB
Day. 29 / Time. 10.53 Zulu
* Altimeter: 30.18
* Temperature: -04° c. -24.8°f.
* Wind from: 040° Speed 07 kn.
Dewpoint: -06° c.
Visibility: 10 Statute Miles.
Clouds: Overcast 1000 ft.

KGRB 291053Z AUTO 04007KT 10SM OVC010 M04/M06 A3018 RMK AO2 SLP232 T10391061


Wind From 040°
Speed 07 kn.

 
 
jpsmedia worldairports.se 2020   terms of use